createdAt,value
2022-09-05T00:01:40.807Z,99.90
2022-09-05T00:06:02.390Z,99.90
2022-09-05T00:10:20.620Z,99.90
2022-09-05T00:15:15.097Z,99.90
2022-09-05T00:24:19.772Z,99.90
2022-09-05T00:24:25.379Z,99.90
2022-09-05T00:29:02.870Z,99.90
2022-09-05T00:33:22.583Z,99.90
2022-09-05T00:37:45.103Z,99.90
2022-09-05T00:41:49.916Z,99.90
2022-09-05T00:46:14.964Z,99.90
2022-09-05T00:50:29.934Z,99.90
2022-09-05T00:54:44.352Z,99.90
2022-09-05T00:59:29.546Z,99.90
2022-09-05T01:08:29.394Z,99.90
2022-09-05T01:12:46.556Z,99.90
2022-09-05T01:17:22.219Z,99.90
2022-09-05T01:21:58.115Z,99.90
2022-09-05T01:25:59.732Z,99.90
2022-09-05T01:30:12.856Z,99.90
2022-09-05T01:34:32.599Z,99.90
2022-09-05T01:38:48.332Z,99.90
2022-09-05T01:43:35.103Z,99.90
2022-09-05T01:47:40.785Z,99.90
2022-09-05T01:52:23.882Z,99.90
2022-09-05T01:56:35.648Z,99.90
2022-09-05T02:01:31.774Z,99.90
2022-09-05T02:06:03.046Z,99.90
2022-09-05T02:10:55.432Z,99.90
2022-09-05T02:15:25.361Z,99.90
2022-09-05T02:19:31.513Z,99.90
2022-09-05T02:23:41.845Z,99.90
2022-09-05T02:28:04.957Z,99.90
2022-09-05T02:32:20.957Z,99.90
2022-09-05T02:36:35.073Z,99.90
2022-09-05T02:45:20.664Z,99.90
2022-09-05T02:45:23.977Z,99.90
2022-09-05T02:57:20.236Z,99.90
2022-09-05T02:57:42.484Z,99.90
2022-09-05T02:59:05.717Z,99.90
2022-09-05T03:03:14.514Z,99.90
2022-09-05T03:07:21.985Z,99.90
2022-09-05T03:11:42.775Z,99.90
2022-09-05T03:15:56.169Z,99.90
2022-09-05T03:20:35.491Z,99.90
2022-09-05T03:25:14.709Z,99.90
2022-09-05T03:30:01.733Z,99.90
2022-09-05T03:34:39.141Z,99.90
2022-09-05T03:38:59.241Z,99.90
2022-09-05T03:43:09.771Z,99.90
2022-09-05T03:48:13.420Z,99.90
2022-09-05T03:57:14.767Z,99.90
2022-09-05T03:57:42.732Z,99.90
2022-09-05T04:04:33.822Z,99.90
2022-09-05T04:08:20.390Z,99.90
2022-09-05T04:10:57.663Z,99.90
2022-09-05T04:15:22.601Z,99.90
2022-09-05T04:19:50.439Z,99.90
2022-09-05T04:23:59.942Z,99.90
2022-09-05T04:28:19.860Z,99.90
2022-09-05T04:32:44.146Z,99.90
2022-09-05T04:36:58.343Z,99.90
2022-09-05T04:41:04.384Z,99.90
2022-09-05T04:45:17.838Z,99.90
2022-09-05T04:49:50.682Z,99.90
2022-09-05T04:54:27.545Z,99.90
2022-09-05T04:59:55.277Z,99.90
2022-09-05T05:06:18.131Z,99.90
2022-09-05T05:08:27.945Z,99.90
2022-09-05T05:18:00.728Z,99.90
2022-09-05T05:18:42.392Z,99.90
2022-09-05T05:22:27.556Z,99.90
2022-09-05T05:27:00.011Z,99.90
2022-09-05T05:31:16.909Z,99.90
2022-09-05T05:35:30.035Z,99.90
2022-09-05T05:39:37.864Z,99.90
2022-09-05T05:43:46.282Z,99.90
2022-09-05T05:47:56.631Z,99.90
2022-09-05T05:52:04.288Z,99.90
2022-09-05T05:56:30.251Z,99.90
2022-09-05T06:00:53.502Z,99.90
2022-09-05T06:05:19.369Z,99.90
2022-09-05T06:13:48.791Z,99.90
2022-09-05T06:15:00.479Z,99.90
2022-09-05T06:18:45.817Z,99.90
2022-09-05T06:23:06.834Z,99.90
2022-09-05T06:27:36.470Z,99.90
2022-09-05T06:31:57.678Z,99.90
2022-09-05T06:36:16.540Z,99.90
2022-09-05T06:40:34.369Z,99.90
2022-09-05T06:44:55.548Z,99.90
2022-09-05T06:49:29.697Z,99.90
2022-09-05T06:53:35.414Z,99.90
2022-09-05T06:58:07.552Z,99.90
2022-09-05T07:02:57.995Z,99.90
2022-09-05T07:07:35.357Z,99.90
2022-09-05T07:11:40.191Z,99.90
2022-09-05T07:16:07.348Z,99.90
2022-09-05T07:20:23.652Z,99.90
2022-09-05T07:24:53.612Z,99.90
2022-09-05T07:28:54.744Z,99.90
2022-09-05T07:33:01.359Z,99.90
2022-09-05T07:37:17.914Z,99.90
2022-09-05T07:41:26.655Z,99.90
2022-09-05T07:45:29.810Z,99.90
2022-09-05T07:49:33.908Z,99.90
2022-09-05T07:56:50.139Z,99.90
2022-09-05T07:58:14.604Z,99.90
2022-09-05T08:02:16.529Z,99.90
2022-09-05T08:07:01.273Z,99.90
2022-09-05T08:11:24.043Z,99.90
2022-09-05T08:15:51.038Z,99.90
2022-09-05T08:20:09.531Z,99.90
2022-09-05T08:24:15.552Z,99.90
2022-09-05T08:28:24.409Z,99.90
2022-09-05T08:32:39.035Z,99.90
2022-09-05T08:36:47.491Z,99.90
2022-09-05T08:40:54.467Z,99.90
2022-09-05T08:46:40.348Z,99.90
2022-09-05T08:49:58.708Z,99.90
2022-09-05T08:54:16.301Z,99.90
2022-09-05T08:58:39.431Z,99.90
2022-09-05T09:02:48.148Z,99.90
2022-09-05T09:07:51.536Z,99.90
2022-09-05T09:12:04.025Z,99.90
2022-09-05T09:16:24.461Z,99.90
2022-09-05T09:20:33.350Z,99.90
2022-09-05T09:25:15.487Z,99.90
2022-09-05T09:29:19.302Z,99.90
2022-09-05T09:33:29.205Z,99.90
2022-09-05T09:37:54.395Z,99.90
2022-09-05T09:42:33.386Z,99.90
2022-09-05T09:46:54.554Z,96.90
2022-09-05T09:51:33.589Z,94.60
2022-09-05T09:55:40.720Z,91.20
2022-09-05T10:00:01.008Z,87.80
2022-09-05T10:10:33.477Z,90.40
2022-09-05T10:10:47.752Z,82.40
2022-09-05T10:14:26.183Z,78.80
2022-09-05T10:19:10.756Z,77.30
2022-09-05T10:23:33.751Z,73.90
2022-09-05T10:28:05.115Z,70.30
2022-09-05T10:35:04.897Z,67.60
2022-09-05T10:37:09.378Z,65.60
2022-09-05T10:41:21.177Z,69.00
2022-09-05T10:45:43.195Z,69.90
2022-09-05T10:49:49.495Z,65.40
2022-09-05T10:54:07.476Z,68.50
2022-09-05T10:58:41.807Z,69.20
2022-09-05T11:02:56.435Z,70.80
2022-09-05T11:07:27.927Z,66.00
2022-09-05T11:11:46.661Z,64.60
2022-09-05T11:16:04.283Z,67.40
2022-09-05T11:20:35.365Z,65.50
2022-09-05T11:25:04.033Z,65.20
2022-09-05T11:29:10.777Z,65.90
2022-09-05T11:38:43.972Z,64.70
2022-09-05T11:40:06.360Z,68.60
2022-09-05T11:42:55.803Z,66.30
2022-09-05T11:47:30.167Z,68.20
2022-09-05T11:52:08.824Z,62.80
2022-09-05T11:56:32.579Z,65.00
2022-09-05T12:00:43.242Z,64.50
2022-09-05T12:05:49.201Z,63.40
2022-09-05T12:09:59.255Z,67.00
2022-09-05T12:14:25.480Z,62.10
2022-09-05T12:18:44.502Z,62.20
2022-09-05T12:23:31.219Z,59.20
2022-09-05T12:27:46.118Z,61.20
2022-09-05T12:35:22.527Z,65.20
2022-09-05T12:40:40.438Z,65.20
2022-09-05T12:41:39.695Z,66.50
2022-09-05T12:45:59.438Z,64.00
2022-09-05T12:50:15.197Z,62.30
2022-09-05T12:54:33.079Z,68.60
2022-09-05T13:03:02.402Z,65.60
2022-09-05T13:03:37.914Z,63.90
2022-09-05T13:07:42.563Z,60.60
2022-09-05T13:14:47.028Z,60.00
2022-09-05T13:16:29.261Z,61.90
2022-09-05T13:20:44.696Z,59.50
2022-09-05T13:24:52.689Z,60.80
2022-09-05T13:29:21.869Z,60.60
2022-09-05T13:38:05.946Z,60.20
2022-09-05T13:38:35.944Z,60.90
2022-09-05T13:42:43.335Z,62.00
2022-09-05T13:47:00.626Z,59.50
2022-09-05T13:51:12.743Z,61.40
2022-09-05T13:55:22.577Z,59.60
2022-09-05T13:59:24.954Z,58.60
2022-09-05T14:13:50.319Z,57.70
2022-09-05T14:17:55.162Z,57.60
2022-09-05T14:21:57.063Z,59.10
2022-09-05T14:26:03.323Z,58.20
2022-09-05T14:30:14.230Z,58.00
2022-09-05T14:37:42.572Z,61.50
2022-09-05T14:39:45.205Z,54.60
2022-09-05T14:44:05.380Z,55.20
2022-09-05T14:48:09.880Z,56.30
2022-09-05T14:52:20.342Z,57.30
2022-09-05T14:57:23.723Z,56.60
2022-09-05T15:02:58.050Z,58.40
2022-09-05T15:05:27.375Z,57.70
2022-09-05T15:12:21.379Z,61.60
2022-09-05T15:14:12.887Z,59.50
2022-09-05T15:18:17.335Z,60.30
2022-09-05T15:22:30.878Z,59.20
2022-09-05T15:26:34.088Z,57.60
2022-09-05T15:30:36.587Z,57.50
2022-09-05T15:34:39.608Z,59.10
2022-09-05T15:38:55.993Z,59.50
2022-09-05T15:43:05.360Z,60.20
2022-09-05T15:47:10.319Z,59.70
2022-09-05T15:55:45.512Z,62.30
2022-09-05T15:59:58.171Z,62.00
2022-09-05T16:10:31.698Z,60.10
2022-09-05T16:10:46.734Z,60.90
2022-09-05T16:12:57.392Z,62.00
2022-09-05T16:23:14.245Z,65.40
2022-09-05T16:23:23.940Z,68.00
2022-09-05T16:26:06.249Z,68.00
2022-09-05T16:30:12.067Z,68.70
2022-09-05T16:34:38.487Z,70.50
2022-09-05T16:38:51.022Z,75.90
2022-09-05T16:43:15.789Z,79.00
2022-09-05T16:47:29.288Z,81.40
2022-09-05T16:52:00.805Z,83.90
2022-09-05T16:56:10.543Z,85.60
2022-09-05T17:00:12.436Z,89.40
2022-09-05T17:04:21.915Z,90.10
2022-09-05T17:08:35.426Z,92.00
2022-09-05T17:12:38.768Z,93.90
2022-09-05T17:17:19.525Z,95.50
2022-09-05T17:22:47.558Z,96.80
2022-09-05T17:29:49.405Z,98.50
2022-09-05T17:39:44.943Z,99.90
2022-09-05T17:43:58.176Z,99.90
2022-09-05T17:48:00.589Z,99.90
2022-09-05T17:52:18.624Z,99.90
2022-09-05T17:56:40.743Z,99.90
2022-09-05T18:00:47.761Z,99.90
2022-09-05T18:04:53.569Z,99.90
2022-09-05T18:08:56.276Z,99.90
2022-09-05T18:13:32.327Z,99.90
2022-09-05T18:17:38.497Z,99.90
2022-09-05T18:21:55.416Z,99.90
2022-09-05T18:26:09.404Z,99.90
2022-09-05T18:30:26.935Z,99.90
2022-09-05T18:34:31.916Z,99.90
2022-09-05T18:38:51.554Z,99.90
2022-09-05T18:42:55.209Z,99.90
2022-09-05T18:47:32.137Z,99.90
2022-09-05T18:51:52.951Z,99.90
2022-09-05T18:56:27.513Z,99.90
2022-09-05T19:00:44.778Z,99.90
2022-09-05T19:04:56.111Z,99.90
2022-09-05T19:09:08.548Z,99.90
2022-09-05T19:13:23.932Z,99.90
2022-09-05T19:17:41.008Z,99.90
2022-09-05T19:22:09.108Z,99.90
2022-09-05T19:26:21.380Z,99.90
2022-09-05T19:37:08.707Z,99.90
2022-09-05T19:37:22.834Z,99.90
2022-09-05T19:41:13.573Z,99.90
2022-09-05T19:47:41.872Z,99.90
2022-09-05T19:48:07.632Z,99.90
2022-09-05T19:52:17.191Z,99.90
2022-09-05T19:56:20.588Z,99.90
2022-09-05T20:00:24.578Z,99.90
2022-09-05T20:08:46.751Z,99.90
2022-09-05T20:12:48.476Z,99.90
2022-09-05T20:16:52.918Z,99.90
2022-09-05T20:21:15.924Z,99.90
2022-09-05T20:25:35.975Z,99.90
2022-09-05T20:30:02.235Z,99.90
2022-09-05T20:34:39.343Z,99.90
2022-09-05T20:43:19.457Z,99.90
2022-09-05T20:43:33.002Z,99.90
2022-09-05T20:54:07.644Z,99.90
2022-09-05T20:54:26.553Z,99.90
2022-09-05T20:56:32.331Z,99.90
2022-09-05T21:00:34.532Z,99.90
2022-09-05T21:04:38.568Z,99.90
2022-09-05T21:08:40.503Z,99.90
2022-09-05T21:12:46.695Z,99.90
2022-09-05T21:17:08.264Z,99.90
2022-09-05T21:21:48.208Z,99.90
2022-09-05T21:25:58.656Z,99.90
2022-09-05T21:30:23.533Z,99.90
2022-09-05T21:34:38.273Z,99.90
2022-09-05T21:38:46.779Z,99.90
2022-09-05T21:47:37.938Z,99.90
2022-09-05T21:47:48.554Z,99.90
2022-09-05T21:51:38.579Z,99.90
2022-09-05T21:59:17.485Z,99.90
2022-09-05T22:00:10.607Z,99.90
2022-09-05T22:04:13.040Z,99.90
2022-09-05T22:08:14.697Z,99.90
2022-09-05T22:12:29.960Z,99.90
2022-09-05T22:16:33.155Z,99.90
2022-09-05T22:20:37.779Z,99.90
2022-09-05T22:24:39.503Z,99.90
2022-09-05T22:28:48.639Z,99.90
2022-09-05T22:32:50.348Z,99.90
2022-09-05T22:36:52.406Z,99.90
2022-09-05T22:40:56.605Z,99.90
2022-09-05T22:44:59.101Z,99.90
2022-09-05T22:49:00.786Z,99.90
2022-09-05T22:53:06.593Z,99.90
2022-09-05T22:57:08.276Z,99.90
2022-09-05T23:01:11.099Z,99.90
2022-09-05T23:05:12.847Z,99.90
2022-09-05T23:09:14.612Z,99.90
2022-09-05T23:13:16.466Z,99.90
2022-09-05T23:17:18.174Z,99.90
2022-09-05T23:21:19.935Z,99.90
2022-09-05T23:25:22.213Z,99.90
2022-09-05T23:29:23.991Z,99.90
2022-09-05T23:33:25.842Z,99.90
2022-09-05T23:37:27.837Z,99.90
2022-09-05T23:41:29.924Z,99.90
2022-09-05T23:45:31.669Z,99.90
2022-09-05T23:49:33.369Z,99.90
2022-09-05T23:53:35.211Z,99.90
2022-09-05T23:57:37.363Z,99.90
